Terminal Aerodrome Forecast
Issued by NWS

Home | Current Version | Previous Version | Text Only | Print | Product List | Glossary On
Versions: 1 2 3 4 5 6 7 8 9 10 11 12 13 14
000
FTUS43 KPAH 281621 AAA
TAFOWB
TAF AMD
KOWB 281621Z 2816/2912 27012KT P6SM VCSH SCT025 OVC040
      TEMPO 2816/2818 4SM -SHRA OVC025
     FM281900 35006KT P6SM BKN100=

USA.gov is the U.S. government's official web portal to all federal, state and local government web resources and services.